Legaspi, Philippines
Current Conditions -  °F | °C
As of 1:00 PM on Thursday 27 Nov 2014 (Local Time) from RPVM Reporting Station
Light Rain Light Rain  
Wind Chill: 82°   Ceiling: 9000
Heat Index: 92°   Visibility: 6mi
Dew Point: 79°   Wind: 7mph
Humidity: 89%   Direction: 60°ENE
Pressure: 29.77"   Gusts: NA
Location:  13.13°N, 123.73°E
Report Text: RPVM 270500Z 06006KT 9999 -RA SCT020 OVC090 28/26 Q1008 RMK A2977
Loading
Personal Weather Stations






























Interactive Weather Map New forecast layout! Learn more

10-Day Weather Forecast

Advertisements
Track Severe Weather on mobile